Taasinge Maersk — OUSX2 — position and weather

sailwx.info

Track history (hours):
 
Tides and Currents Weather Stations Pressure Air Temp Water Temp Dewpoint Dewpoint Depression Visibility Wind Speed Wind Dir Waves Ship Positions

Taasinge Maersk

Last reported at 2014-Nov-07 09:24 UTC. Time now 2014-Nov-21 16:36 UTC.
Position N 35°57' W 005°35'.
Warning: this ship's position is 14 days out of date.

Length 191 m; draft 10.4 m.

Type: Cargo ship. MMSI: 220157000.

Date/timePositionNaut miles runAvg speedWind from/ knotsBaromVisibWave heightAir tempDewpointWater temp
2014-Nov-07 09:24N 35°57' W 005°35'910.3
2014-Nov-07 08:33N 36°00' W 005°25'8 8.3
2014-Nov-07 07:33N 36°09' W 005°26'0 0.2
2014-Nov-07 06:29N 36°09' W 005°26'0 0.0
2014-Nov-07 05:31N 36°09' W 005°26'0 0.0
2014-Nov-07 04:31N 36°09' W 005°26'0 0.0
2014-Nov-07 03:32N 36°09' W 005°26'0 0.0
2014-Nov-07 02:29N 36°09' W 005°26'0 0.0
2014-Nov-07 01:29N 36°09' W 005°26'0 0.0
2014-Nov-07 00:29N 36°09' W 005°26'0 0.0
2014-Nov-06 23:32N 36°09' W 005°26'0 0.0
2014-Nov-06 22:32N 36°09' W 005°26'0 0.0
2014-Nov-06 20:24N 36°09' W 005°26'0 0.0
2014-Nov-06 19:30N 36°09' W 005°26'0 0.0
2014-Nov-06 18:33N 36°09' W 005°26'0 0.0
2014-Nov-06 17:33N 36°09' W 005°26'0 0.0
2014-Nov-06 16:33N 36°09' W 005°26'0 0.0
2014-Nov-06 15:33N 36°09' W 005°26'0 0.0
2014-Nov-06 14:30N 36°09' W 005°26'0 0.0
2014-Nov-06 13:30N 36°09' W 005°26'0 0.0
2014-Nov-06 12:33N 36°09' W 005°26'1 1.3
2014-Nov-06 11:34N 36°09' W 005°25'7 7.2
2014-Nov-06 10:33N 36°02' W 005°23'  
2014-Nov-03 20:21N 35°58' W 005°38'7 8.9
2014-Nov-03 19:32N 35°60' W 005°29'3 7.6
2014-Nov-03 19:07N 36°01' W 005°25'3 5.8
2014-Nov-03 18:33N 36°04' W 005°23'1 2.5
2014-Nov-03 18:12N 36°03' W 005°23'410.6
2014-Nov-03 17:50N 35°59' W 005°25'412.2
2014-Nov-03 17:33N 35°57' W 005°29'3 0.2
2014-Nov-02 21:29N 35°57' W 005°33'9 9.3
2014-Nov-02 20:33N 36°02' W 005°24'5 0.2
2014-Nov-01 14:25N 36°07' W 005°25'0 0.0
2014-Nov-01 13:28N 36°07' W 005°25'0 0.0
2014-Nov-01 10:16N 36°07' W 005°25'0 0.0
2014-Nov-01 09:22N 36°07' W 005°25'0 0.0
2014-Nov-01 08:22N 36°07' W 005°25'0 0.0
2014-Nov-01 07:22N 36°07' W 005°25'0 0.0
2014-Nov-01 06:28N 36°07' W 005°25'0 0.0
2014-Nov-01 05:28N 36°07' W 005°25'0 0.0
2014-Nov-01 04:28N 36°07' W 005°25'0 0.0
2014-Nov-01 03:13N 36°07' W 005°25'0 0.0
2014-Nov-01 02:28N 36°07' W 005°25'0 0.0
2014-Nov-01 01:16N 36°07' W 005°25'0 0.0
2014-Nov-01 00:28N 36°07' W 005°25'0 0.0
2014-Oct-31 23:31N 36°07' W 005°25'0 0.0
2014-Oct-31 22:28N 36°07' W 005°25'0 0.0
2014-Oct-31 21:28N 36°07' W 005°25'0 0.0
2014-Oct-31 20:28N 36°07' W 005°25'0 0.0
2014-Oct-31 19:31N 36°07' W 005°25'0 0.0
2014-Oct-31 17:28N 36°07' W 005°25'0 0.0
2014-Oct-31 16:28N 36°07' W 005°25'0 0.0
2014-Oct-31 15:28N 36°07' W 005°25'0 0.0
2014-Oct-31 14:22N 36°07' W 005°25'0 0.0
2014-Oct-31 13:28N 36°07' W 005°25'0 0.0
2014-Oct-31 12:22N 36°07' W 005°25'0 0.0
2014-Oct-31 11:16N 36°07' W 005°25'0 0.0
2014-Oct-31 10:31N 36°07' W 005°25'0 0.0
2014-Oct-31 09:30N 36°07' W 005°25'0 0.0
2014-Oct-31 08:30N 36°07' W 005°25'0 0.0
2014-Oct-31 07:30N 36°07' W 005°25'0 0.0
2014-Oct-31 06:30N 36°07' W 005°25'0 0.0
2014-Oct-31 05:24N 36°07' W 005°25'0 0.0
2014-Oct-31 03:06N 36°07' W 005°25'0 0.0
2014-Oct-31 02:30N 36°07' W 005°25'0 0.0
2014-Oct-31 01:06N 36°07' W 005°25'0 0.0
2014-Oct-31 00:15N 36°07' W 005°25'0 0.0
2014-Oct-30 23:18N 36°07' W 005°25'0 0.0
2014-Oct-30 22:33N 36°07' W 005°25'0 0.0
2014-Oct-30 21:28N 36°07' W 005°25'0 0.0
2014-Oct-30 20:30N 36°07' W 005°25'0 0.0
2014-Oct-30 19:30N 36°07' W 005°25'0 0.0
2014-Oct-30 16:24N 36°07' W 005°25'0 0.0
2014-Oct-30 15:30N 36°07' W 005°25'0 0.0
2014-Oct-30 14:33N 36°07' W 005°25'0 0.0
2014-Oct-30 13:30N 36°07' W 005°25'0 0.0
2014-Oct-30 12:18N 36°07' W 005°25'0 0.0
2014-Oct-30 11:24N 36°07' W 005°25'0 0.0
2014-Oct-30 09:06N 36°07' W 005°25'0 0.0
2014-Oct-30 08:06N 36°07' W 005°25'0 0.0
2014-Oct-30 06:21N 36°07' W 005°25'0 0.0
2014-Oct-30 05:30N 36°07' W 005°25'0 0.0
2014-Oct-30 03:30N 36°07' W 005°25'0 0.0
2014-Oct-30 02:06N 36°07' W 005°25'0 0.0
2014-Oct-30 01:30N 36°07' W 005°25'0 0.0
2014-Oct-30 00:30N 36°07' W 005°25'0 0.0
2014-Oct-29 23:33N 36°07' W 005°25'0 0.0
2014-Oct-29 22:18N 36°07' W 005°25'0 0.0
2014-Oct-29 21:30N 36°07' W 005°25'0 0.0
2014-Oct-29 19:12N 36°07' W 005°25'0 0.0
2014-Oct-29 14:20N 36°08' W 005°25'3 3.3
2014-Oct-29 13:33N 36°06' W 005°23'  
Track history (hours):
 
Tides and Currents Weather Stations Pressure Air Temp Water Temp Dewpoint Dewpoint Depression Visibility Wind Speed Wind Dir Waves Ship Positions

Taasinge Maersk

Last reported at 2014-Nov-07 09:24 UTC. Time now 2014-Nov-21 16:36 UTC.
Position N 35°57' W 005°35'.
Warning: this ship's position is 14 days out of date.

Length 191 m; draft 10.4 m.

Type: Cargo ship. MMSI: 220157000.

Date/timePositionNaut miles runAvg speedWind from/ knotsBaromVisibWave heightAir tempDewpointWater temp
2014-Nov-07 09:24N 35°57' W 005°35'910.3
2014-Nov-07 08:33N 36°00' W 005°25'8 8.3
2014-Nov-07 07:33N 36°09' W 005°26'0 0.2
2014-Nov-07 06:29N 36°09' W 005°26'0 0.0
2014-Nov-07 05:31N 36°09' W 005°26'0 0.0
2014-Nov-07 04:31N 36°09' W 005°26'0 0.0
2014-Nov-07 03:32N 36°09' W 005°26'0 0.0
2014-Nov-07 02:29N 36°09' W 005°26'0 0.0
2014-Nov-07 01:29N 36°09' W 005°26'0 0.0
2014-Nov-07 00:29N 36°09' W 005°26'0 0.0
2014-Nov-06 23:32N 36°09' W 005°26'0 0.0
2014-Nov-06 22:32N 36°09' W 005°26'0 0.0
2014-Nov-06 20:24N 36°09' W 005°26'0 0.0
2014-Nov-06 19:30N 36°09' W 005°26'0 0.0
2014-Nov-06 18:33N 36°09' W 005°26'0 0.0
2014-Nov-06 17:33N 36°09' W 005°26'0 0.0
2014-Nov-06 16:33N 36°09' W 005°26'0 0.0
2014-Nov-06 15:33N 36°09' W 005°26'0 0.0
2014-Nov-06 14:30N 36°09' W 005°26'0 0.0
2014-Nov-06 13:30N 36°09' W 005°26'0 0.0
2014-Nov-06 12:33N 36°09' W 005°26'1 1.3
2014-Nov-06 11:34N 36°09' W 005°25'7 7.2
2014-Nov-06 10:33N 36°02' W 005°23'  
2014-Nov-03 20:21N 35°58' W 005°38'7 8.9
2014-Nov-03 19:32N 35°60' W 005°29'3 7.6
2014-Nov-03 19:07N 36°01' W 005°25'3 5.8
2014-Nov-03 18:33N 36°04' W 005°23'1 2.5
2014-Nov-03 18:12N 36°03' W 005°23'410.6
2014-Nov-03 17:50N 35°59' W 005°25'412.2
2014-Nov-03 17:33N 35°57' W 005°29'3 0.2
2014-Nov-02 21:29N 35°57' W 005°33'9 9.3
2014-Nov-02 20:33N 36°02' W 005°24'5 0.2
2014-Nov-01 14:25N 36°07' W 005°25'0 0.0
2014-Nov-01 13:28N 36°07' W 005°25'0 0.0
2014-Nov-01 10:16N 36°07' W 005°25'0 0.0
2014-Nov-01 09:22N 36°07' W 005°25'0 0.0
2014-Nov-01 08:22N 36°07' W 005°25'0 0.0
2014-Nov-01 07:22N 36°07' W 005°25'0 0.0
2014-Nov-01 06:28N 36°07' W 005°25'0 0.0
2014-Nov-01 05:28N 36°07' W 005°25'0 0.0
2014-Nov-01 04:28N 36°07' W 005°25'0 0.0
2014-Nov-01 03:13N 36°07' W 005°25'0 0.0
2014-Nov-01 02:28N 36°07' W 005°25'0 0.0
2014-Nov-01 01:16N 36°07' W 005°25'0 0.0
2014-Nov-01 00:28N 36°07' W 005°25'0 0.0
2014-Oct-31 23:31N 36°07' W 005°25'0 0.0
2014-Oct-31 22:28N 36°07' W 005°25'0 0.0
2014-Oct-31 21:28N 36°07' W 005°25'0 0.0
2014-Oct-31 20:28N 36°07' W 005°25'0 0.0
2014-Oct-31 19:31N 36°07' W 005°25'0 0.0
2014-Oct-31 17:28N 36°07' W 005°25'0 0.0
2014-Oct-31 16:28N 36°07' W 005°25'0 0.0
2014-Oct-31 15:28N 36°07' W 005°25'0 0.0
2014-Oct-31 14:22N 36°07' W 005°25'0 0.0
2014-Oct-31 13:28N 36°07' W 005°25'0 0.0
2014-Oct-31 12:22N 36°07' W 005°25'0 0.0
2014-Oct-31 11:16N 36°07' W 005°25'0 0.0
2014-Oct-31 10:31N 36°07' W 005°25'0 0.0
2014-Oct-31 09:30N 36°07' W 005°25'0 0.0
2014-Oct-31 08:30N 36°07' W 005°25'0 0.0
2014-Oct-31 07:30N 36°07' W 005°25'0 0.0
2014-Oct-31 06:30N 36°07' W 005°25'0 0.0
2014-Oct-31 05:24N 36°07' W 005°25'0 0.0
2014-Oct-31 03:06N 36°07' W 005°25'0 0.0
2014-Oct-31 02:30N 36°07' W 005°25'0 0.0
2014-Oct-31 01:06N 36°07' W 005°25'0 0.0
2014-Oct-31 00:15N 36°07' W 005°25'0 0.0
2014-Oct-30 23:18N 36°07' W 005°25'0 0.0
2014-Oct-30 22:33N 36°07' W 005°25'0 0.0
2014-Oct-30 21:28N 36°07' W 005°25'0 0.0
2014-Oct-30 20:30N 36°07' W 005°25'0 0.0
2014-Oct-30 19:30N 36°07' W 005°25'0 0.0
2014-Oct-30 16:24N 36°07' W 005°25'0 0.0
2014-Oct-30 15:30N 36°07' W 005°25'0 0.0
2014-Oct-30 14:33N 36°07' W 005°25'0 0.0
2014-Oct-30 13:30N 36°07' W 005°25'0 0.0
2014-Oct-30 12:18N 36°07' W 005°25'0 0.0
2014-Oct-30 11:24N 36°07' W 005°25'0 0.0
2014-Oct-30 09:06N 36°07' W 005°25'0 0.0
2014-Oct-30 08:06N 36°07' W 005°25'0 0.0
2014-Oct-30 06:21N 36°07' W 005°25'0 0.0
2014-Oct-30 05:30N 36°07' W 005°25'0 0.0
2014-Oct-30 03:30N 36°07' W 005°25'0 0.0
2014-Oct-30 02:06N 36°07' W 005°25'0 0.0
2014-Oct-30 01:30N 36°07' W 005°25'0 0.0
2014-Oct-30 00:30N 36°07' W 005°25'0 0.0
2014-Oct-29 23:33N 36°07' W 005°25'0 0.0
2014-Oct-29 22:18N 36°07' W 005°25'0 0.0
2014-Oct-29 21:30N 36°07' W 005°25'0 0.0
2014-Oct-29 19:12N 36°07' W 005°25'0 0.0
2014-Oct-29 14:20N 36°08' W 005°25'3 3.3
2014-Oct-29 13:33N 36°06' W 005°23'  

Dump ship's entire track history